Time;durP1;ratioP1;P1;durP2;ratioP2;P2;SDS_P1;SDS_P2;PMS_P1;PMS_P2;Temp;Humidity;BMP_temperature;BMP_pressure;BME280_temperature;BME280_humidity;BME280_pressure;Samples;Min_cycle;Max_cycle;Signal;HPM_P1;HPM_P2
2021/08/03 00:02:25;;;;;;;0.60;0.60;;;;;;;;;;5000847;28;20037;-53
2021/08/03 00:04:55;;;;;;;2.85;0.70;;;;;;;;;;4999403;28;20543;-53
2021/08/03 00:07:23;;;;;;;1.40;0.60;;;;;;;;;;5004024;28;20034;-53
2021/08/03 00:09:51;;;;;;;0.73;0.60;;;;;;;;;;4996432;28;20042;-53
2021/08/03 00:12:18;;;;;;;0.90;0.60;;;;;;;;;;5009053;28;20045;-53
2021/08/03 00:14:47;;;;;;;4.18;0.70;;;;;;;;;;5007210;28;20123;-52
2021/08/03 00:17:24;;;;;;;2.95;0.60;;;;;;;;;;4996619;28;20121;-50
2021/08/03 00:19:51;;;;;;;1.90;0.80;;;;;;;;;;5006440;28;20410;-50
2021/08/03 00:22:21;;;;;;;0.70;0.70;;;;;;;;;;5005161;28;20438;-53
2021/08/03 00:24:48;;;;;;;1.05;0.70;;;;;;;;;;5003835;28;20442;-49
2021/08/03 00:27:15;;;;;;;0.63;0.60;;;;;;;;;;5005844;28;20041;-52
2021/08/03 00:29:42;;;;;;;0.60;0.60;;;;;;;;;;4992624;28;20562;-53
2021/08/03 00:32:08;;;;;;;0.82;0.75;;;;;;;;;;5004653;28;20061;-52
2021/08/03 00:34:36;;;;;;;0.60;0.60;;;;;;;;;;4994844;28;20116;-53
2021/08/03 00:37:05;;;;;;;1.25;0.65;;;;;;;;;;5008560;28;20088;-51
2021/08/03 00:39:32;;;;;;;0.73;0.60;;;;;;;;;;5006543;28;20899;-51
2021/08/03 00:42:00;;;;;;;0.60;0.60;;;;;;;;;;4993170;28;20046;-51
2021/08/03 00:44:40;;;;;;;1.75;0.60;;;;;;;;;;5002576;28;20042;-52
2021/08/03 00:47:07;;;;;;;0.60;0.60;;;;;;;;;;4999112;28;20049;-52
2021/08/03 00:49:34;;;;;;;1.52;1.13;;;;;;;;;;5002388;28;20042;-51
2021/08/03 00:52:02;;;;;;;0.60;0.60;;;;;;;;;;5009587;28;20122;-51
2021/08/03 00:54:29;;;;;;;1.17;0.60;;;;;;;;;;5001507;28;20037;-52
2021/08/03 00:56:55;;;;;;;1.13;1.13;;;;;;;;;;5004969;28;20038;-52
2021/08/03 00:59:22;;;;;;;4.20;0.70;;;;;;;;;;5001732;28;20423;-51
2021/08/03 01:01:49;;;;;;;1.40;0.60;;;;;;;;;;5012236;28;20040;-52
2021/08/03 01:04:17;;;;;;;1.33;0.60;;;;;;;;;;5011117;28;20121;-51
2021/08/03 01:07:00;;;;;;;0.90;0.73;;;;;;;;;;5012246;28;20053;-52
2021/08/03 01:09:37;;;;;;;0.65;0.65;;;;;;;;;;5007733;28;20034;-53
2021/08/03 01:12:09;;;;;;;1.63;0.70;;;;;;;;;;5007851;28;20038;-52
2021/08/03 01:14:38;;;;;;;1.52;0.70;;;;;;;;;;5010687;28;20041;-52
2021/08/03 01:17:23;;;;;;;0.60;0.60;;;;;;;;;;5020470;28;20107;-52
2021/08/03 01:19:56;;;;;;;0.70;0.70;;;;;;;;;;5016830;28;20033;-52
2021/08/03 01:22:41;;;;;;;3.53;0.60;;;;;;;;;;5008311;28;20607;-50
2021/08/03 01:25:15;;;;;;;1.05;0.75;;;;;;;;;;5007385;28;20045;-53
2021/08/03 01:28:00;;;;;;;0.63;0.63;;;;;;;;;;5010044;28;20524;-51
2021/08/03 01:30:27;;;;;;;0.93;0.70;;;;;;;;;;5011936;28;20045;-53
2021/08/03 01:32:54;;;;;;;1.38;0.90;;;;;;;;;;5005471;28;20081;-52
2021/08/03 01:35:22;;;;;;;0.98;0.80;;;;;;;;;;5000083;28;20081;-52
2021/08/03 01:37:50;;;;;;;0.60;0.60;;;;;;;;;;5003766;28;20046;-53
2021/08/03 01:40:17;;;;;;;0.60;0.60;;;;;;;;;;5009750;28;20105;-50
2021/08/03 01:42:44;;;;;;;2.05;0.60;;;;;;;;;;4994364;28;20061;-52
2021/08/03 01:45:12;;;;;;;0.70;0.70;;;;;;;;;;5018531;28;20053;-52
2021/08/03 01:47:39;;;;;;;0.80;0.80;;;;;;;;;;5020051;28;20037;-53
2021/08/03 01:50:08;;;;;;;1.45;0.70;;;;;;;;;;5011428;28;20038;-50
2021/08/03 01:52:34;;;;;;;1.38;0.70;;;;;;;;;;5008683;28;20065;-49
2021/08/03 01:55:02;;;;;;;0.70;0.70;;;;;;;;;;5004531;28;20046;-52
2021/08/03 01:57:29;;;;;;;0.60;0.60;;;;;;;;;;5004588;28;20049;-51
2021/08/03 01:59:56;;;;;;;2.25;0.80;;;;;;;;;;5001792;28;20041;-53
2021/08/03 02:02:23;;;;;;;1.95;0.88;;;;;;;;;;4996263;28;20042;-48
2021/08/03 02:04:51;;;;;;;0.70;0.70;;;;;;;;;;5006736;28;20506;-51
2021/08/03 02:07:20;;;;;;;3.78;0.60;;;;;;;;;;4995024;28;20071;-53
2021/08/03 02:09:47;;;;;;;1.35;0.70;;;;;;;;;;5015038;28;20100;-53
2021/08/03 02:12:14;;;;;;;2.03;0.80;;;;;;;;;;5004650;28;20620;-52
2021/08/03 02:14:45;;;;;;;1.00;0.90;;;;;;;;;;5010374;28;20042;-52
2021/08/03 02:17:22;;;;;;;0.73;0.73;;;;;;;;;;5004936;28;20034;-51
2021/08/03 02:19:49;;;;;;;2.15;0.80;;;;;;;;;;5001297;28;20126;-51
2021/08/03 02:22:17;;;;;;;0.70;0.70;;;;;;;;;;5000501;28;20042;-53
2021/08/03 02:24:44;;;;;;;1.05;0.73;;;;;;;;;;5009214;28;20135;-52
2021/08/03 02:27:11;;;;;;;0.80;0.80;;;;;;;;;;5002616;28;20038;-52
2021/08/03 02:29:41;;;;;;;0.70;0.70;;;;;;;;;;5009233;28;20057;-52
2021/08/03 02:32:16;;;;;;;0.73;0.73;;;;;;;;;;5008028;28;20048;-52
2021/08/03 02:35:01;;;;;;;0.70;0.70;;;;;;;;;;5011504;28;20050;-52
2021/08/03 02:37:30;;;;;;;0.88;0.70;;;;;;;;;;5011140;28;20103;-53
2021/08/03 02:39:57;;;;;;;1.00;0.60;;;;;;;;;;5001793;28;20038;-53
2021/08/03 02:42:24;;;;;;;0.65;0.65;;;;;;;;;;5002159;28;20038;-52
2021/08/03 02:44:53;;;;;;;2.05;0.70;;;;;;;;;;5005155;28;20042;-51
2021/08/03 02:47:36;;;;;;;1.10;0.60;;;;;;;;;;4993017;28;20490;-53
2021/08/03 02:50:06;;;;;;;2.50;0.70;;;;;;;;;;5011223;28;20049;-51
2021/08/03 02:52:35;;;;;;;1.58;0.80;;;;;;;;;;5009142;28;20056;-51
2021/08/03 02:55:09;;;;;;;1.52;0.70;;;;;;;;;;5010016;28;20040;-51
2021/08/03 02:57:37;;;;;;;0.85;0.85;;;;;;;;;;5005301;28;20038;-50
2021/08/03 03:00:04;;;;;;;0.70;0.70;;;;;;;;;;4998088;28;20076;-51
2021/08/03 03:02:34;;;;;;;1.38;0.60;;;;;;;;;;5011096;28;20037;-53
2021/08/03 03:05:06;;;;;;;1.63;0.70;;;;;;;;;;5009750;28;20367;-52
2021/08/03 03:07:35;;;;;;;0.80;0.80;;;;;;;;;;5007356;28;20046;-53
2021/08/03 03:10:04;;;;;;;1.60;1.15;;;;;;;;;;5001542;28;20100;-53
2021/08/03 03:12:32;;;;;;;2.25;0.80;;;;;;;;;;4999414;28;20049;-54
2021/08/03 03:15:01;;;;;;;1.50;0.70;;;;;;;;;;4996775;28;20627;-52
2021/08/03 03:17:31;;;;;;;0.80;0.80;;;;;;;;;;5008800;28;20038;-52
2021/08/03 03:19:58;;;;;;;0.93;0.70;;;;;;;;;;5007321;28;20046;-51
2021/08/03 03:22:27;;;;;;;0.73;0.70;;;;;;;;;;5000792;28;20042;-48
2021/08/03 03:24:55;;;;;;;0.80;0.80;;;;;;;;;;5002443;28;20093;-51
2021/08/03 03:27:23;;;;;;;2.80;0.90;;;;;;;;;;5010511;28;20468;-49
2021/08/03 03:29:50;;;;;;;1.05;0.70;;;;;;;;;;5006775;28;20638;-48
2021/08/03 03:32:17;;;;;;;1.67;0.80;;;;;;;;;;5009224;28;20038;-51
2021/08/03 03:34:44;;;;;;;1.05;0.80;;;;;;;;;;5009697;28;20112;-50
2021/08/03 03:37:11;;;;;;;1.70;0.70;;;;;;;;;;5008402;28;20103;-54
2021/08/03 03:39:38;;;;;;;0.98;0.75;;;;;;;;;;5004722;28;20048;-52
2021/08/03 03:42:06;;;;;;;0.70;0.70;;;;;;;;;;5003825;28;20049;-51
2021/08/03 03:44:34;;;;;;;0.70;0.70;;;;;;;;;;5000385;28;20030;-52
2021/08/03 03:47:20;;;;;;;1.40;1.00;;;;;;;;;;5009555;28;20682;-51
2021/08/03 03:49:51;;;;;;;0.80;0.80;;;;;;;;;;5003520;28;20057;-52
2021/08/03 03:52:20;;;;;;;1.42;0.70;;;;;;;;;;4994866;28;20042;-52
2021/08/03 03:54:49;;;;;;;1.35;0.80;;;;;;;;;;4999313;28;20049;-52
2021/08/03 03:57:16;;;;;;;1.48;0.73;;;;;;;;;;5007775;28;20034;-53
2021/08/03 03:59:45;;;;;;;0.90;0.90;;;;;;;;;;4996308;28;20034;-53
2021/08/03 04:02:13;;;;;;;1.55;0.70;;;;;;;;;;5005269;28;20054;-52
2021/08/03 04:04:40;;;;;;;0.80;0.80;;;;;;;;;;4996771;28;20108;-53
2021/08/03 04:07:07;;;;;;;4.93;1.20;;;;;;;;;;4997474;28;20635;-52
2021/08/03 04:09:34;;;;;;;2.15;1.00;;;;;;;;;;5002362;28;20060;-52
2021/08/03 04:12:01;;;;;;;2.00;1.00;;;;;;;;;;4999217;28;20058;-52
2021/08/03 04:14:28;;;;;;;6.55;1.00;;;;;;;;;;5009791;28;20052;-51
2021/08/03 04:16:56;;;;;;;0.90;0.90;;;;;;;;;;5007810;28;20042;-53
2021/08/03 04:19:22;;;;;;;1.42;0.90;;;;;;;;;;5008407;28;20045;-52
2021/08/03 04:21:50;;;;;;;1.02;0.80;;;;;;;;;;5008262;28;20041;-53
2021/08/03 04:24:18;;;;;;;1.38;1.38;;;;;;;;;;5009044;28;20064;-52
2021/08/03 04:26:45;;;;;;;0.80;0.80;;;;;;;;;;5011283;28;20045;-52
2021/08/03 04:29:12;;;;;;;1.00;0.80;;;;;;;;;;5003294;28;20537;-51
2021/08/03 04:31:39;;;;;;;0.80;0.80;;;;;;;;;;5013184;28;20049;-52
2021/08/03 04:34:05;;;;;;;1.55;0.90;;;;;;;;;;5012318;28;20583;-53
2021/08/03 04:36:34;;;;;;;2.55;0.90;;;;;;;;;;5012057;28;20569;-53
2021/08/03 04:39:01;;;;;;;0.80;0.70;;;;;;;;;;5014092;28;20108;-53
2021/08/03 04:41:28;;;;;;;1.60;1.35;;;;;;;;;;5011633;28;20541;-53
2021/08/03 04:43:55;;;;;;;0.68;0.68;;;;;;;;;;5005318;28;20030;-54
2021/08/03 04:46:22;;;;;;;2.25;0.70;;;;;;;;;;5007782;28;20167;-53
2021/08/03 04:48:48;;;;;;;0.75;0.75;;;;;;;;;;4998645;28;20662;-53
2021/08/03 04:51:15;;;;;;;0.90;0.90;;;;;;;;;;5010342;28;20045;-53
2021/08/03 04:53:42;;;;;;;1.77;0.82;;;;;;;;;;5011994;28;20045;-53
2021/08/03 04:56:09;;;;;;;2.80;0.90;;;;;;;;;;5012987;28;20057;-50
2021/08/03 04:58:38;;;;;;;2.58;0.93;;;;;;;;;;5015433;28;20049;-53
2021/08/03 05:01:05;;;;;;;1.35;1.13;;;;;;;;;;5006212;28;20092;-53
2021/08/03 05:03:32;;;;;;;6.93;1.38;;;;;;;;;;5013479;28;20540;-53
2021/08/03 05:05:59;;;;;;;1.75;0.90;;;;;;;;;;5010952;28;20125;-52
2021/08/03 05:08:26;;;;;;;1.40;0.80;;;;;;;;;;5010863;28;20053;-52
2021/08/03 05:10:53;;;;;;;0.93;0.93;;;;;;;;;;5012765;28;20050;-52
2021/08/03 05:13:20;;;;;;;6.57;0.93;;;;;;;;;;5012036;28;20160;-53
2021/08/03 05:15:48;;;;;;;1.10;1.00;;;;;;;;;;5008818;28;20096;-52
2021/08/03 05:18:15;;;;;;;1.40;1.00;;;;;;;;;;5007806;28;20037;-53
2021/08/03 05:20:44;;;;;;;1.20;1.20;;;;;;;;;;5009144;28;20448;-54
2021/08/03 05:23:10;;;;;;;2.00;1.15;;;;;;;;;;5011926;28;20044;-58
2021/08/03 05:25:37;;;;;;;1.90;0.90;;;;;;;;;;5009641;28;20038;-57
2021/08/03 05:28:04;;;;;;;3.38;1.08;;;;;;;;;;4996580;28;20034;-58
2021/08/03 05:30:31;;;;;;;1.67;1.33;;;;;;;;;;5007868;28;20109;-58
2021/08/03 05:32:58;;;;;;;1.13;0.98;;;;;;;;;;5011390;28;20052;-57
2021/08/03 05:35:24;;;;;;;0.90;0.90;;;;;;;;;;5011124;28;20085;-57
2021/08/03 05:37:51;;;;;;;0.95;0.80;;;;;;;;;;5011913;28;20042;-57
2021/08/03 05:40:20;;;;;;;2.05;0.70;;;;;;;;;;5002152;28;20113;-57
2021/08/03 05:42:47;;;;;;;1.50;1.38;;;;;;;;;;5005766;28;20042;-57
2021/08/03 05:45:13;;;;;;;1.35;1.00;;;;;;;;;;5007342;28;20034;-57
2021/08/03 05:47:40;;;;;;;2.80;0.82;;;;;;;;;;5011762;28;20117;-58
2021/08/03 05:50:08;;;;;;;5.30;0.80;;;;;;;;;;5010570;28;20030;-57
2021/08/03 05:52:35;;;;;;;1.40;0.80;;;;;;;;;;5006010;28;20049;-56
2021/08/03 05:55:03;;;;;;;0.90;0.90;;;;;;;;;;5007158;28;20061;-56
2021/08/03 05:57:30;;;;;;;0.90;0.80;;;;;;;;;;5013785;28;20590;-57
2021/08/03 05:59:57;;;;;;;2.05;1.00;;;;;;;;;;5006851;28;20125;-57
2021/08/03 06:02:24;;;;;;;0.80;0.80;;;;;;;;;;5004508;28;20042;-56
2021/08/03 06:04:52;;;;;;;0.80;0.80;;;;;;;;;;4992359;28;20383;-57
2021/08/03 06:07:20;;;;;;;0.70;0.70;;;;;;;;;;5003503;28;20403;-57
2021/08/03 06:09:48;;;;;;;0.70;0.70;;;;;;;;;;5001271;28;20156;-57
2021/08/03 06:12:16;;;;;;;2.60;0.85;;;;;;;;;;5009528;28;20045;-56
2021/08/03 06:14:44;;;;;;;1.65;0.80;;;;;;;;;;5006744;28;20509;-56
2021/08/03 06:17:15;;;;;;;1.77;0.73;;;;;;;;;;4995269;28;20045;-56
2021/08/03 06:19:46;;;;;;;0.90;0.90;;;;;;;;;;5000807;28;20042;-57
2021/08/03 06:22:13;;;;;;;1.75;0.60;;;;;;;;;;5002508;28;20050;-57
2021/08/03 06:24:41;;;;;;;3.95;1.63;;;;;;;;;;5011860;28;20072;-57
2021/08/03 06:27:08;;;;;;;1.70;0.60;;;;;;;;;;5008421;28;20375;-56
2021/08/03 06:29:37;;;;;;;0.60;0.60;;;;;;;;;;5003910;28;20606;-56
2021/08/03 06:32:04;;;;;;;0.70;0.70;;;;;;;;;;5002968;28;20046;-56
2021/08/03 06:34:33;;;;;;;4.63;0.70;;;;;;;;;;5004712;28;20065;-57
2021/08/03 06:36:59;;;;;;;0.70;0.70;;;;;;;;;;5011166;28;20109;-56
2021/08/03 06:39:26;;;;;;;1.15;0.60;;;;;;;;;;5010057;28;20080;-57
2021/08/03 06:41:59;;;;;;;0.70;0.70;;;;;;;;;;5007254;28;20037;-56
2021/08/03 06:44:31;;;;;;;2.67;0.70;;;;;;;;;;5010464;28;20037;-56
2021/08/03 06:46:58;;;;;;;0.60;0.60;;;;;;;;;;5008373;28;20041;-56
2021/08/03 06:49:28;;;;;;;3.53;0.60;;;;;;;;;;5008086;28;20421;-56
2021/08/03 06:51:56;;;;;;;0.90;0.90;;;;;;;;;;5001818;28;20120;-56
2021/08/03 06:54:25;;;;;;;0.65;0.60;;;;;;;;;;5000941;28;20056;-56
2021/08/03 06:56:58;;;;;;;0.70;0.65;;;;;;;;;;5009077;28;20675;-56
2021/08/03 06:59:25;;;;;;;;;;;;;;;;;;5005076;28;20036;-56
2021/08/03 07:02:17;;;;;;;0.60;0.60;;;;;;;;;;5005458;28;19925;-56
2021/08/03 07:04:47;;;;;;;1.67;0.60;;;;;;;;;;5009805;28;20482;-56
2021/08/03 07:07:14;;;;;;;0.60;0.60;;;;;;;;;;5008543;28;20448;-56
2021/08/03 07:09:44;;;;;;;0.80;0.80;;;;;;;;;;5010198;28;20041;-57
2021/08/03 07:12:12;;;;;;;1.27;0.50;;;;;;;;;;5011667;28;20034;-55
2021/08/03 07:14:39;;;;;;;1.58;0.60;;;;;;;;;;5009657;28;20076;-57
2021/08/03 07:17:06;;;;;;;0.60;0.60;;;;;;;;;;5004083;28;20042;-57
2021/08/03 07:19:34;;;;;;;0.57;0.57;;;;;;;;;;5003656;28;20050;-56
2021/08/03 07:22:01;;;;;;;1.00;0.60;;;;;;;;;;4994972;28;20048;-56
2021/08/03 07:24:29;;;;;;;1.92;0.60;;;;;;;;;;5010274;28;20037;-55
2021/08/03 07:26:57;;;;;;;0.50;0.50;;;;;;;;;;5009698;28;20054;-57
2021/08/03 07:29:24;;;;;;;0.98;0.60;;;;;;;;;;4998748;28;20056;-56
2021/08/03 07:31:51;;;;;;;0.60;0.60;;;;;;;;;;5004713;28;20042;-56
2021/08/03 07:34:18;;;;;;;0.90;0.63;;;;;;;;;;5007235;28;20659;-57
2021/08/03 07:36:45;;;;;;;0.70;0.57;;;;;;;;;;5009980;28;20049;-55
2021/08/03 07:39:12;;;;;;;0.60;0.60;;;;;;;;;;5008264;28;20042;-57
2021/08/03 07:41:39;;;;;;;2.05;0.68;;;;;;;;;;5006578;28;20117;-56
2021/08/03 07:44:06;;;;;;;1.65;0.60;;;;;;;;;;5002674;28;20467;-57
2021/08/03 07:46:34;;;;;;;0.50;0.50;;;;;;;;;;4998162;28;20054;-57
2021/08/03 07:49:02;;;;;;;2.80;0.57;;;;;;;;;;5010463;28;20694;-57
2021/08/03 07:51:29;;;;;;;0.68;0.50;;;;;;;;;;5007295;28;20144;-57
2021/08/03 07:53:56;;;;;;;0.60;0.60;;;;;;;;;;5008857;28;20034;-56
2021/08/03 07:56:23;;;;;;;0.60;0.50;;;;;;;;;;5002218;28;20112;-57
2021/08/03 07:58:50;;;;;;;0.50;0.50;;;;;;;;;;4999500;28;20041;-57
2021/08/03 08:01:20;;;;;;;0.50;0.50;;;;;;;;;;5001027;28;20038;-57
2021/08/03 08:03:47;;;;;;;0.40;0.40;;;;;;;;;;5006356;28;20130;-57
2021/08/03 08:06:14;;;;;;;0.55;0.50;;;;;;;;;;4994297;28;20394;-57
2021/08/03 08:08:42;;;;;;;0.50;0.50;;;;;;;;;;5008613;28;20411;-57
2021/08/03 08:11:10;;;;;;;0.60;0.60;;;;;;;;;;5006982;28;20037;-57
2021/08/03 08:13:36;;;;;;;0.60;0.50;;;;;;;;;;5008463;28;20038;-57
2021/08/03 08:16:03;;;;;;;0.43;0.43;;;;;;;;;;5007729;28;20525;-57
2021/08/03 08:18:30;;;;;;;1.30;0.60;;;;;;;;;;5006259;28;20033;-57
2021/08/03 08:20:57;;;;;;;1.75;0.73;;;;;;;;;;4998363;28;20049;-57
2021/08/03 08:23:25;;;;;;;0.55;0.55;;;;;;;;;;4999905;28;20445;-57
2021/08/03 08:25:52;;;;;;;1.42;0.50;;;;;;;;;;4991863;28;20036;-56
2021/08/03 08:28:18;;;;;;;0.55;0.50;;;;;;;;;;5008997;28;20069;-57
2021/08/03 08:30:45;;;;;;;2.15;0.47;;;;;;;;;;5007956;28;20108;-56
2021/08/03 08:33:12;;;;;;;0.50;0.50;;;;;;;;;;5003063;28;20438;-57
2021/08/03 08:35:39;;;;;;;0.50;0.50;;;;;;;;;;5002962;28;20145;-57
2021/08/03 08:38:06;;;;;;;0.40;0.40;;;;;;;;;;5008650;28;20100;-57
2021/08/03 08:40:37;;;;;;;0.40;0.40;;;;;;;;;;5009507;28;20104;-57
2021/08/03 08:43:04;;;;;;;0.50;0.40;;;;;;;;;;5008124;28;20490;-57
2021/08/03 08:45:31;;;;;;;0.40;0.40;;;;;;;;;;5010312;28;20050;-56
2021/08/03 08:47:58;;;;;;;0.82;0.50;;;;;;;;;;5007555;28;20038;-57
2021/08/03 08:50:25;;;;;;;0.40;0.40;;;;;;;;;;5003912;28;20348;-57
2021/08/03 08:52:53;;;;;;;3.70;0.45;;;;;;;;;;5009982;28;20074;-57
2021/08/03 08:55:21;;;;;;;0.60;0.50;;;;;;;;;;5007416;28;20053;-57
2021/08/03 08:57:51;;;;;;;0.57;0.40;;;;;;;;;;4992178;28;20038;-57
2021/08/03 09:00:21;;;;;;;0.40;0.40;;;;;;;;;;5006265;28;20038;-57
2021/08/03 09:02:53;;;;;;;2.42;0.40;;;;;;;;;;5008039;28;20088;-57
2021/08/03 09:05:28;;;;;;;1.10;0.40;;;;;;;;;;5009468;28;20069;-56
2021/08/03 09:07:56;;;;;;;8.88;0.88;;;;;;;;;;5006652;28;20049;-56
2021/08/03 09:10:42;;;;;;;0.40;0.40;;;;;;;;;;5008936;28;20081;-57
2021/08/03 09:13:16;;;;;;;3.75;0.60;;;;;;;;;;5012124;28;20054;-57
2021/08/03 09:16:02;;;;;;;1.55;0.40;;;;;;;;;;5010063;28;20305;-57
2021/08/03 09:18:29;;;;;;;0.32;0.28;;;;;;;;;;4994739;28;20042;-56
2021/08/03 09:20:58;;;;;;;0.32;0.32;;;;;;;;;;5006237;28;20096;-56
2021/08/03 09:23:38;;;;;;;0.30;0.30;;;;;;;;;;5001485;28;20043;-56
2021/08/03 09:26:05;;;;;;;1.65;0.40;;;;;;;;;;5013669;28;20513;-57
2021/08/03 09:28:32;;;;;;;2.17;0.40;;;;;;;;;;5006026;28;20034;-57
2021/08/03 09:30:58;;;;;;;0.22;0.22;;;;;;;;;;4998469;28;20034;-56
2021/08/03 09:33:29;;;;;;;0.85;0.30;;;;;;;;;;5002615;28;20493;-56
2021/08/03 09:35:56;;;;;;;0.40;0.40;;;;;;;;;;5005117;28;20045;-57
2021/08/03 09:38:23;;;;;;;0.30;0.30;;;;;;;;;;4994379;28;20050;-57
2021/08/03 09:40:52;;;;;;;0.30;0.30;;;;;;;;;;5010318;28;20050;-57
2021/08/03 09:43:26;;;;;;;1.33;0.40;;;;;;;;;;5009759;28;20056;-57
2021/08/03 09:45:53;;;;;;;1.35;0.30;;;;;;;;;;5000664;28;20133;-57
2021/08/03 09:48:24;;;;;;;1.45;0.32;;;;;;;;;;5011169;28;20033;-57
2021/08/03 09:51:04;;;;;;;0.43;0.43;;;;;;;;;;4995172;28;20088;-57
2021/08/03 09:53:37;;;;;;;1.17;0.32;;;;;;;;;;5011408;28;20498;-57
2021/08/03 09:56:03;;;;;;;;;;;;;;;;;;5009815;28;20104;-57
2021/08/03 09:58:31;;;;;;;0.30;0.30;;;;;;;;;;4995061;28;19921;-57
2021/08/03 10:01:16;;;;;;;0.30;0.30;;;;;;;;;;5006206;28;20068;-57
2021/08/03 10:03:44;;;;;;;0.38;0.30;;;;;;;;;;5001280;28;20034;-57
2021/08/03 10:06:11;;;;;;;0.38;0.38;;;;;;;;;;5011904;28;20050;-57
2021/08/03 10:08:37;;;;;;;1.05;0.30;;;;;;;;;;5008759;28;20046;-57
2021/08/03 10:11:04;;;;;;;0.90;0.30;;;;;;;;;;5010628;28;20057;-57
2021/08/03 10:13:31;;;;;;;0.25;0.25;;;;;;;;;;5004404;28;20062;-58
2021/08/03 10:15:58;;;;;;;1.65;0.25;;;;;;;;;;5000202;28;20045;-57
2021/08/03 10:18:25;;;;;;;0.47;0.30;;;;;;;;;;5007440;28;20537;-58
2021/08/03 10:20:52;;;;;;;0.50;0.30;;;;;;;;;;5007353;28;20033;-57
2021/08/03 10:23:19;;;;;;;0.85;0.30;;;;;;;;;;5009488;28;20034;-58
2021/08/03 10:25:46;;;;;;;0.32;0.30;;;;;;;;;;5012584;28;20107;-56
2021/08/03 10:28:19;;;;;;;1.02;0.30;;;;;;;;;;5007370;28;20057;-57
2021/08/03 10:30:46;;;;;;;0.40;0.30;;;;;;;;;;5011483;28;20682;-57
2021/08/03 10:33:32;;;;;;;0.20;0.20;;;;;;;;;;5010830;28;20129;-57
2021/08/03 10:35:59;;;;;;;0.35;0.30;;;;;;;;;;5000890;28;20088;-57
2021/08/03 10:38:28;;;;;;;0.20;0.20;;;;;;;;;;5001223;28;20446;-57
2021/08/03 10:40:57;;;;;;;0.30;0.30;;;;;;;;;;5009602;28;20042;-58
2021/08/03 10:43:26;;;;;;;0.30;0.30;;;;;;;;;;5010540;28;20041;-58
2021/08/03 10:46:07;;;;;;;0.30;0.30;;;;;;;;;;5009744;28;20050;-58
2021/08/03 10:48:40;;;;;;;1.25;0.30;;;;;;;;;;5005021;28;20038;-58
2021/08/03 10:51:13;;;;;;;0.30;0.30;;;;;;;;;;4998499;28;20038;-57
2021/08/03 10:53:52;;;;;;;1.00;0.28;;;;;;;;;;5006475;28;20394;-58
2021/08/03 10:56:19;;;;;;;0.30;0.30;;;;;;;;;;5021589;28;20083;-58
2021/08/03 10:58:46;;;;;;;0.65;0.20;;;;;;;;;;5010112;28;20057;-58
2021/08/03 11:01:32;;;;;;;1.40;0.30;;;;;;;;;;5005446;28;20382;-58
2021/08/03 11:03:59;;;;;;;0.20;0.20;;;;;;;;;;4998841;28;20030;-57
2021/08/03 11:06:26;;;;;;;0.43;0.25;;;;;;;;;;5002790;28;20034;-58
2021/08/03 11:08:54;;;;;;;0.85;0.20;;;;;;;;;;4999694;28;20042;-58
2021/08/03 11:11:22;;;;;;;0.20;0.20;;;;;;;;;;5011887;28;20045;-57
2021/08/03 11:13:49;;;;;;;0.32;0.25;;;;;;;;;;5007958;28;20129;-57
2021/08/03 11:16:21;;;;;;;2.47;0.80;;;;;;;;;;5008324;28;20041;-58
2021/08/03 11:18:50;;;;;;;0.25;0.25;;;;;;;;;;5009131;28;20730;-58
2021/08/03 11:21:18;;;;;;;0.28;0.28;;;;;;;;;;5015866;28;20064;-57
2021/08/03 11:24:00;;;;;;;0.30;0.30;;;;;;;;;;4992905;28;20050;-58
2021/08/03 11:26:29;;;;;;;0.30;0.30;;;;;;;;;;5009760;28;20099;-57
2021/08/03 11:29:03;;;;;;;0.30;0.30;;;;;;;;;;5009839;28;20284;-57
2021/08/03 11:31:42;;;;;;;0.52;0.30;;;;;;;;;;5005245;28;20050;-57
2021/08/03 11:34:09;;;;;;;0.75;0.30;;;;;;;;;;5006937;28;20041;-57
2021/08/03 11:36:36;;;;;;;1.10;0.30;;;;;;;;;;5006587;28;20065;-53
2021/08/03 11:39:21;;;;;;;0.20;0.20;;;;;;;;;;5009862;28;20085;-55
2021/08/03 11:41:49;;;;;;;0.30;0.30;;;;;;;;;;5008049;28;20602;-53
2021/08/03 11:44:16;;;;;;;0.20;0.20;;;;;;;;;;5009062;28;20045;-53
2021/08/03 11:46:44;;;;;;;0.20;0.20;;;;;;;;;;5003829;28;20039;-53
2021/08/03 11:49:10;;;;;;;1.23;0.20;;;;;;;;;;4998412;28;20124;-53
2021/08/03 11:51:44;;;;;;;0.20;0.20;;;;;;;;;;5006363;28;20038;-55
2021/08/03 11:54:11;;;;;;;0.85;0.30;;;;;;;;;;5005970;28;20050;-54
2021/08/03 11:56:38;;;;;;;0.20;0.20;;;;;;;;;;5007657;28;20085;-54
2021/08/03 11:59:05;;;;;;;0.30;0.30;;;;;;;;;;5010493;28;20041;-54
2021/08/03 12:01:48;;;;;;;0.77;0.20;;;;;;;;;;5009506;28;20042;-54
2021/08/03 12:04:15;;;;;;;0.20;0.20;;;;;;;;;;4993232;28;20464;-54
2021/08/03 12:06:43;;;;;;;0.20;0.20;;;;;;;;;;5009186;28;20037;-54
2021/08/03 12:09:10;;;;;;;0.50;0.22;;;;;;;;;;5008315;28;20030;-53
2021/08/03 12:11:37;;;;;;;0.95;0.20;;;;;;;;;;4998367;28;20045;-53
2021/08/03 12:14:10;;;;;;;0.30;0.30;;;;;;;;;;5007998;28;20034;-42
2021/08/03 12:16:37;;;;;;;0.75;0.28;;;;;;;;;;5007678;28;20505;-42
2021/08/03 12:19:04;;;;;;;0.52;0.30;;;;;;;;;;5008068;28;20061;-45
2021/08/03 12:21:38;;;;;;;0.20;0.20;;;;;;;;;;4998799;28;20078;-42
2021/08/03 12:24:08;;;;;;;0.20;0.20;;;;;;;;;;5009407;28;20034;-42
2021/08/03 12:26:35;;;;;;;0.60;0.20;;;;;;;;;;5006355;28;20042;-41
2021/08/03 12:29:02;;;;;;;1.15;0.20;;;;;;;;;;4993836;28;20034;-43
2021/08/03 12:31:30;;;;;;;0.30;0.22;;;;;;;;;;4998169;28;20077;-40
2021/08/03 12:34:06;;;;;;;0.28;0.28;;;;;;;;;;5001376;28;20041;-41
2021/08/03 12:36:41;;;;;;;0.25;0.20;;;;;;;;;;5008778;28;20050;-43
2021/08/03 12:39:10;;;;;;;0.20;0.20;;;;;;;;;;5002265;28;20117;-43
2021/08/03 12:41:37;;;;;;;1.10;0.20;;;;;;;;;;5004969;28;20088;-42
2021/08/03 12:44:04;;;;;;;1.38;0.30;;;;;;;;;;4996054;28;20046;-42
2021/08/03 12:46:32;;;;;;;0.28;0.20;;;;;;;;;;5006455;28;20047;-41
2021/08/03 12:48:59;;;;;;;0.30;0.28;;;;;;;;;;5005677;28;20104;-41
2021/08/03 12:51:27;;;;;;;0.85;0.20;;;;;;;;;;5013227;28;20505;-42
2021/08/03 12:54:10;;;;;;;0.20;0.20;;;;;;;;;;5011685;28;20033;-44
2021/08/03 12:56:46;;;;;;;1.15;0.20;;;;;;;;;;4995693;28;20446;-43
2021/08/03 12:59:32;;;;;;;0.20;0.20;;;;;;;;;;5007048;28;20042;-43
2021/08/03 13:01:59;;;;;;;0.22;0.20;;;;;;;;;;5004863;28;20042;-44
2021/08/03 13:04:26;;;;;;;1.52;0.28;;;;;;;;;;5013224;28;20088;-44
2021/08/03 13:06:54;;;;;;;0.20;0.20;;;;;;;;;;5012592;28;20038;-42
2021/08/03 13:09:20;;;;;;;0.82;0.30;;;;;;;;;;4999187;28;20121;-42
2021/08/03 13:11:47;;;;;;;0.28;0.22;;;;;;;;;;5003282;28;20446;-41
2021/08/03 13:14:14;;;;;;;0.20;0.20;;;;;;;;;;5004179;28;20046;-42
2021/08/03 13:16:41;;;;;;;3.95;0.20;;;;;;;;;;5012779;28;20129;-43
2021/08/03 13:19:07;;;;;;;0.95;0.30;;;;;;;;;;5005709;28;20122;-41
2021/08/03 13:21:34;;;;;;;0.30;0.25;;;;;;;;;;4998924;28;20545;-42
2021/08/03 13:24:01;;;;;;;0.20;0.20;;;;;;;;;;5013748;28;20062;-40
2021/08/03 13:26:28;;;;;;;0.20;0.20;;;;;;;;;;5011516;28;20042;-40
2021/08/03 13:28:55;;;;;;;0.30;0.30;;;;;;;;;;4995722;28;20054;-42
2021/08/03 13:31:22;;;;;;;0.30;0.30;;;;;;;;;;5011890;28;20068;-42
2021/08/03 13:33:49;;;;;;;0.30;0.30;;;;;;;;;;5010613;28;20037;-42
2021/08/03 13:36:15;;;;;;;0.30;0.30;;;;;;;;;;4999953;28;20089;-42
2021/08/03 13:38:42;;;;;;;2.25;0.30;;;;;;;;;;5007387;28;20088;-42
2021/08/03 13:41:09;;;;;;;0.38;0.30;;;;;;;;;;5003319;28;20038;-43
2021/08/03 13:43:35;;;;;;;0.30;0.30;;;;;;;;;;5011242;28;20530;-41
2021/08/03 13:46:02;;;;;;;0.25;0.25;;;;;;;;;;5010461;28;20057;-41
2021/08/03 13:48:29;;;;;;;0.40;0.30;;;;;;;;;;5000752;28;20049;-41
2021/08/03 13:50:56;;;;;;;0.95;0.30;;;;;;;;;;5010548;28;20135;-42
2021/08/03 13:53:22;;;;;;;0.30;0.30;;;;;;;;;;5011304;28;20462;-42
2021/08/03 13:55:49;;;;;;;0.30;0.30;;;;;;;;;;5011736;28;20053;-44
2021/08/03 13:58:16;;;;;;;0.30;0.30;;;;;;;;;;5010409;28;20092;-42
2021/08/03 14:00:43;;;;;;;0.98;0.30;;;;;;;;;;4999056;28;20074;-41
2021/08/03 14:03:10;;;;;;;2.55;0.30;;;;;;;;;;5008082;28;20038;-43
2021/08/03 14:05:37;;;;;;;0.20;0.20;;;;;;;;;;5006942;28;20133;-41
2021/08/03 14:08:04;;;;;;;2.30;0.20;;;;;;;;;;5008405;28;20052;-42
2021/08/03 14:10:30;;;;;;;1.48;0.20;;;;;;;;;;5001932;28;20549;-42
2021/08/03 14:12:57;;;;;;;0.20;0.20;;;;;;;;;;5011737;28;20045;-43
2021/08/03 14:15:24;;;;;;;0.20;0.20;;;;;;;;;;5010248;28;20508;-41
2021/08/03 14:17:50;;;;;;;0.20;0.20;;;;;;;;;;5010668;28;20052;-41
2021/08/03 14:20:17;;;;;;;0.22;0.22;;;;;;;;;;5010410;28;20113;-42
2021/08/03 14:22:44;;;;;;;0.25;0.25;;;;;;;;;;5011460;28;20038;-41
2021/08/03 14:25:12;;;;;;;0.35;0.20;;;;;;;;;;5008963;28;20049;-42
2021/08/03 14:27:38;;;;;;;0.30;0.30;;;;;;;;;;5005134;28;20088;-42
2021/08/03 14:30:06;;;;;;;0.20;0.20;;;;;;;;;;4996419;28;20394;-41
2021/08/03 14:32:33;;;;;;;0.70;0.30;;;;;;;;;;5000580;28;20105;-42
2021/08/03 14:34:59;;;;;;;1.48;0.20;;;;;;;;;;5006853;28;20134;-41
2021/08/03 14:37:26;;;;;;;0.20;0.20;;;;;;;;;;5003080;28;20050;-42
2021/08/03 14:39:53;;;;;;;0.20;0.20;;;;;;;;;;5008451;28;20069;-42
2021/08/03 14:42:19;;;;;;;0.95;0.20;;;;;;;;;;5008778;28;20042;-45
2021/08/03 14:44:46;;;;;;;0.22;0.22;;;;;;;;;;4997708;28;20041;-43
2021/08/03 14:47:13;;;;;;;0.57;0.20;;;;;;;;;;5009395;28;20038;-42
2021/08/03 14:49:41;;;;;;;0.30;0.30;;;;;;;;;;4999211;28;20076;-44
2021/08/03 14:52:08;;;;;;;0.40;0.20;;;;;;;;;;5011450;28;20145;-46
2021/08/03 14:54:34;;;;;;;0.40;0.20;;;;;;;;;;5010186;28;20506;-45